Time;durP1;ratioP1;P1;durP2;ratioP2;P2;SDS_P1;SDS_P2;PMS_P1;PMS_P2;Temp;Humidity;BMP_temperature;BMP_pressure;BME280_temperature;BME280_humidity;BME280_pressure;Samples;Min_cycle;Max_cycle;Signal;HPM_P1;HPM_P2
2023/05/23 00:03:01;;;;;;;19.05;14.50;;;;;;;15.76;100.00;100488.22;6231054;28;20038;-88
2023/05/23 00:06:05;;;;;;;22.10;14.73;;;;;;;15.83;100.00;100492.69;6226209;28;20682;-88
2023/05/23 00:09:07;;;;;;;25.73;14.00;;;;;;;15.79;100.00;100490.53;6252618;28;20081;-88
2023/05/23 00:12:11;;;;;;;19.83;14.02;;;;;;;15.76;100.00;100483.00;6219927;28;20050;-89
2023/05/23 00:15:13;;;;;;;18.90;13.63;;;;;;;15.83;100.00;100478.81;6221333;28;20045;-88
2023/05/23 00:18:15;;;;;;;17.40;13.30;;;;;;;15.81;100.00;84183.59;6245243;28;20461;-88
2023/05/23 00:21:17;;;;;;;24.25;16.77;;;;;;;15.87;100.00;100485.34;6230050;28;20644;-87
2023/05/23 00:24:19;;;;;;;27.23;18.10;;;;;;;15.84;100.00;100488.25;6239724;28;20048;-87
2023/05/23 00:27:21;;;;;;;33.47;21.48;;;;;;;15.83;100.00;100481.41;6239001;28;20049;-87
2023/05/23 00:30:24;;;;;;;32.10;22.50;;;;;;;15.82;100.00;100483.19;6234706;28;20507;-87
2023/05/23 00:33:26;;;;;;;46.15;29.10;;;;;;;15.79;100.00;100482.69;6241427;28;20077;-89
2023/05/23 00:36:28;;;;;;;51.63;32.47;;;;;;;15.70;100.00;100476.59;6232155;28;20565;-89
2023/05/23 00:39:30;;;;;;;43.72;31.58;;;;;;;15.54;100.00;100461.66;6216221;28;20053;-88
2023/05/23 00:42:32;;;;;;;53.78;33.67;;;;;;;15.50;100.00;100461.16;6228814;28;20502;-88
2023/05/23 00:45:34;;;;;;;50.63;32.42;;;;;;;15.41;100.00;100454.25;6223613;28;20099;-91
2023/05/23 00:48:37;;;;;;;50.03;33.58;;;;;;;15.30;100.00;100446.69;6237605;28;20045;-89
2023/05/23 00:51:41;;;;;;;54.10;33.90;;;;;;;15.21;100.00;100458.88;6224700;28;20037;-91
2023/05/23 00:54:43;;;;;;;48.10;31.98;;;;;;;15.19;100.00;100450.38;6250420;28;20049;-89
2023/05/23 00:57:46;;;;;;;48.25;33.15;;;;;;;15.13;100.00;100447.53;6254319;28;20049;-90
2023/05/23 01:00:49;;;;;;;47.67;30.35;;;;;;;15.03;100.00;100445.03;6231206;28;20045;-93
2023/05/23 01:03:51;;;;;;;44.65;30.92;;;;;;;14.98;100.00;100435.09;6220282;28;20037;-91
2023/05/23 01:06:56;;;;;;;50.30;31.20;;;;;;;14.94;100.00;100443.34;6234593;28;20130;-94
2023/05/23 01:09:58;;;;;;;42.55;29.00;;;;;;;14.82;100.00;100448.78;6247452;28;20429;-92
2023/05/23 01:13:16;;;;;;;42.97;29.95;;;;;;;14.85;100.00;100445.88;6237563;28;20495;-91
2023/05/23 01:16:35;;;;;;;44.03;28.85;;;;;;;14.77;100.00;100451.03;6236091;28;20545;-91
2023/05/23 01:20:00;;;;;;;42.00;27.77;;;;;;;14.73;100.00;100456.69;6248051;28;20041;-91
2023/05/23 01:23:34;;;;;;;35.75;25.88;;;;;;;14.67;100.00;100449.50;6212644;28;20631;-90
2023/05/23 01:27:02;;;;;;;36.90;26.05;;;;;;;14.64;100.00;100468.84;6245262;28;20048;-91
2023/05/23 01:30:08;;;;;;;32.95;22.42;;;;;;;14.58;100.00;100451.19;6245308;28;20049;-92
2023/05/23 01:33:14;;;;;;;29.38;21.67;;;;;;;14.52;100.00;100454.38;6228425;28;20438;-92
2023/05/23 01:36:16;;;;;;;31.88;20.83;;;;;;;14.47;100.00;100460.03;6220741;28;20096;-92
2023/05/23 01:39:18;;;;;;;28.25;19.55;;;;;;;14.44;100.00;100455.94;6229691;28;20048;-91
2023/05/23 01:42:20;;;;;;;28.77;19.27;;;;;;;14.39;100.00;100455.56;6248829;28;20057;-91
2023/05/23 01:45:25;;;;;;;28.55;19.02;;;;;;;14.38;100.00;100460.91;6231602;28;20496;-92
2023/05/23 01:48:29;;;;;;;26.73;17.33;;;;;;;14.35;100.00;100461.19;6255677;28;20037;-91
2023/05/23 01:51:33;;;;;;;24.10;17.75;;;;;;;14.35;100.00;100462.00;6246872;28;20048;-93
2023/05/23 01:54:37;;;;;;;25.40;17.02;;;;;;;14.36;100.00;100462.81;6245676;28;20499;-91
2023/05/23 01:57:40;;;;;;;24.23;16.52;;;;;;;14.33;100.00;100468.34;6244926;28;20046;-92
2023/05/23 02:00:42;;;;;;;22.27;15.95;;;;;;;14.22;100.00;100461.56;6234998;28;20049;-93
2023/05/23 02:03:43;;;;;;;24.60;16.30;;;;;;;14.22;100.00;100458.94;6222283;28;20080;-91
2023/05/23 02:06:46;;;;;;;22.70;16.00;;;;;;;14.15;100.00;100463.09;6228022;28;20144;-94
2023/05/23 02:09:48;;;;;;;24.40;16.27;;;;;;;14.12;100.00;100460.78;6237468;28;20037;-92
2023/05/23 02:12:50;;;;;;;22.40;15.45;;;;;;;14.09;100.00;100461.09;6237933;28;20056;-93
2023/05/23 02:15:52;;;;;;;26.00;16.35;;;;;;;13.92;100.00;100458.28;6236813;28;20045;-94
2023/05/23 02:18:58;;;;;;;20.20;14.50;;;;;;;13.86;100.00;100458.03;6234539;28;20051;-92
2023/05/23 02:21:59;;;;;;;22.50;13.82;;;;;;;13.77;100.00;100454.53;6227341;28;20557;-92
2023/05/23 02:25:02;;;;;;;22.15;14.35;;;;;;;13.65;100.00;100458.28;6239526;28;20056;-95
2023/05/23 02:28:04;;;;;;;21.20;14.93;;;;;;;13.56;100.00;100449.53;6232390;28;20468;-92
2023/05/23 02:31:06;;;;;;;19.75;13.93;;;;;;;13.48;100.00;100465.03;6227481;28;20045;-93
2023/05/23 02:34:09;;;;;;;20.27;14.45;;;;;;;13.45;100.00;100460.13;6248647;28;20051;-93
2023/05/23 02:37:15;;;;;;;21.77;14.40;;;;;;;13.41;100.00;100467.38;6234885;28;20071;-92
2023/05/23 02:40:17;;;;;;;22.83;15.07;;;;;;;13.32;100.00;100478.63;6247466;28;20041;-92
2023/05/23 02:43:19;;;;;;;22.10;15.25;;;;;;;13.28;100.00;100477.25;6215585;28;20057;-92
2023/05/23 02:46:21;;;;;;;27.27;16.52;;;;;;;13.26;100.00;100476.53;6224978;28;20048;-93
2023/05/23 02:49:23;;;;;;;26.33;17.08;;;;;;;13.30;100.00;100475.34;6226146;28;20042;-93
2023/05/23 02:52:25;;;;;;;27.63;16.13;;;;;;;13.28;100.00;100472.06;6209173;28;20511;-93
2023/05/23 02:55:30;;;;;;;24.25;15.85;;;;;;;13.35;100.00;100478.34;6228993;28;20056;-93
2023/05/23 02:58:34;;;;;;;26.40;17.48;;;;;;;13.41;100.00;100482.97;6238378;28;20076;-93
2023/05/23 03:01:36;;;;;;;25.30;17.00;;;;;;;13.46;100.00;100485.97;6233308;28;20105;-93
2023/05/23 03:04:38;;;;;;;26.50;17.48;;;;;;;13.61;100.00;100483.72;6219981;28;20554;-93
2023/05/23 03:07:40;;;;;;;23.95;17.02;;;;;;;13.68;100.00;100492.63;6224560;28;20043;-93
2023/05/23 03:10:42;;;;;;;26.48;17.73;;;;;;;13.74;100.00;100484.25;6219606;28;20037;-94
2023/05/23 03:13:45;;;;;;;24.45;17.02;;;;;;;13.74;100.00;100481.66;6226413;28;20041;-93
2023/05/23 03:16:47;;;;;;;25.55;16.83;;;;;;;13.76;100.00;100474.53;6245626;28;20452;-94
2023/05/23 03:19:49;;;;;;;27.90;18.55;;;;;;;13.79;100.00;100482.03;6226747;28;20079;-94
2023/05/23 03:22:52;;;;;;;23.85;16.88;;;;;;;13.77;100.00;100478.75;6248302;28;20049;-93
2023/05/23 03:25:54;;;;;;;24.55;17.90;;;;;;;13.83;100.00;100476.53;6230840;28;20507;-94
2023/05/23 03:28:56;;;;;;;31.02;17.70;;;;;;;13.87;100.00;100470.91;6247381;28;20037;-94
2023/05/23 03:31:58;;;;;;;27.55;18.02;;;;;;;13.84;100.00;100475.56;6250657;28;20041;-94
2023/05/23 03:35:01;;;;;;;25.55;17.35;;;;;;;13.81;100.00;100463.66;6228420;28;20457;-94
2023/05/23 03:38:04;;;;;;;28.45;16.73;;;;;;;13.81;100.00;100468.06;6248770;28;20048;-94
2023/05/23 03:41:06;;;;;;;24.23;16.60;;;;;;;13.76;100.00;100474.53;6235876;28;20041;-94
2023/05/23 03:44:09;;;;;;;23.17;16.50;;;;;;;13.71;100.00;100468.09;6231733;28;20053;-94
2023/05/23 03:47:13;;;;;;;17.30;13.00;;;;;;;13.66;100.00;100458.13;6217488;28;20471;-93
2023/05/23 03:50:18;;;;;;;19.58;13.35;;;;;;;13.59;100.00;100459.69;6236065;28;20102;-90
2023/05/23 03:53:20;;;;;;;18.50;12.77;;;;;;;13.63;100.00;100473.19;6233929;28;20052;-94
2023/05/23 03:56:22;;;;;;;17.08;12.48;;;;;;;13.64;100.00;100472.22;6238769;28;20037;-94
2023/05/23 03:59:24;;;;;;;16.83;12.43;;;;;;;13.62;100.00;100474.19;6242177;28;20120;-95
2023/05/23 04:02:26;;;;;;;19.85;13.13;;;;;;;13.65;100.00;100463.47;6233653;28;20133;-94
2023/05/23 04:05:28;;;;;;;16.27;11.35;;;;;;;13.71;100.00;100461.13;6230783;28;20214;-94
2023/05/23 04:08:32;;;;;;;15.95;10.48;;;;;;;13.64;100.00;100454.88;6221237;28;20080;-94
2023/05/23 04:11:35;;;;;;;15.27;10.23;;;;;;;13.64;100.00;100459.22;6222949;28;20038;-93
2023/05/23 04:14:38;;;;;;;16.95;10.65;;;;;;;13.64;100.00;100456.63;6211142;28;20049;-94
2023/05/23 04:17:42;;;;;;;16.80;10.50;;;;;;;13.71;100.00;100457.69;6251875;28;20088;-93
2023/05/23 04:20:45;;;;;;;18.80;11.75;;;;;;;13.72;100.00;100467.16;6218808;28;20088;-94
2023/05/23 04:23:47;;;;;;;15.10;10.52;;;;;;;13.74;100.00;100473.84;6231403;28;20042;-95
2023/05/23 04:26:50;;;;;;;13.75;10.40;;;;;;;13.75;100.00;100474.66;6235428;28;20040;-94
2023/05/23 04:29:55;;;;;;;15.82;9.70;;;;;;;13.76;100.00;100471.94;6249162;28;20034;-94
2023/05/23 04:32:58;;;;;;;15.57;9.50;;;;;;;13.79;100.00;100473.44;6229711;28;20049;-95
2023/05/23 04:36:03;;;;;;;12.75;8.75;;;;;;;13.82;100.00;100474.91;6220237;28;20479;-94
2023/05/23 04:39:06;;;;;;;12.07;8.85;;;;;;;13.78;100.00;100476.97;6239980;28;20415;-95
2023/05/23 04:42:13;;;;;;;14.63;9.38;;;;;;;13.83;100.00;100479.16;6239456;28;20108;-94
2023/05/23 04:45:25;;;;;;;;;;;;;;;13.81;100.00;100476.69;6232795;28;20363;-94
2023/05/23 04:48:34;;;;;;;12.43;9.18;;;;;;;13.82;100.00;100469.72;6232143;28;20086;-94
2023/05/23 04:51:37;;;;;;;13.05;8.65;;;;;;;13.78;100.00;100474.38;6231657;28;20415;-95
2023/05/23 04:54:52;;;;;;;12.60;8.05;;;;;;;13.82;100.00;100470.53;6235366;28;20103;-94
2023/05/23 04:57:55;;;;;;;11.80;8.38;;;;;;;13.77;100.00;100473.56;6235782;28;20140;-93
2023/05/23 05:00:57;;;;;;;11.27;7.80;;;;;;;13.83;100.00;100481.75;6237783;28;20179;-95
2023/05/23 05:04:00;;;;;;;11.27;7.93;;;;;;;13.85;100.00;100478.03;6238648;28;20091;-94
2023/05/23 05:07:02;;;;;;;12.68;8.23;;;;;;;13.82;100.00;100486.13;6237983;28;20503;-92
2023/05/23 05:10:05;;;;;;;11.45;7.85;;;;;;;13.86;100.00;100473.66;6250459;28;20589;-95
2023/05/23 05:13:09;;;;;;;12.73;8.85;;;;;;;13.84;100.00;100473.81;6243578;28;20174;-94
2023/05/23 05:16:19;;;;;;;14.30;9.40;;;;;;;13.75;100.00;100483.28;6265048;28;20060;-95
2023/05/23 05:19:23;;;;;;;16.45;9.20;;;;;;;13.79;100.00;100474.25;6223672;28;20050;-93
2023/05/23 05:22:25;;;;;;;13.13;8.57;;;;;;;13.84;100.00;100475.56;6248833;28;20037;-95
2023/05/23 05:25:30;;;;;;;15.07;9.15;;;;;;;13.82;100.00;100478.34;6219411;28;20057;-94
2023/05/23 05:28:33;;;;;;;13.43;9.57;;;;;;;13.77;100.00;100483.97;6230446;28;20064;-94
2023/05/23 05:31:36;;;;;;;11.85;8.48;;;;;;;13.77;100.00;100473.56;6244591;28;20044;-93
2023/05/23 05:34:39;;;;;;;11.85;8.68;;;;;;;13.79;100.00;100481.22;6237794;28;20416;-94
2023/05/23 05:37:41;;;;;;;11.43;8.18;;;;;;;13.76;100.00;100478.88;6237033;28;20371;-93
2023/05/23 05:40:44;;;;;;;14.13;8.45;;;;;;;13.69;100.00;100475.22;6236242;28;20491;-94
2023/05/23 05:43:46;;;;;;;14.82;9.27;;;;;;;13.71;100.00;100489.75;6237823;28;20042;-93
2023/05/23 05:46:48;;;;;;;11.65;9.07;;;;;;;13.70;100.00;100487.28;6243130;28;20088;-93
2023/05/23 05:49:50;;;;;;;10.25;8.48;;;;;;;13.64;100.00;100480.03;6235941;28;20091;-92
2023/05/23 05:52:54;;;;;;;11.77;8.73;;;;;;;13.60;100.00;100483.91;6251082;28;20049;-91
2023/05/23 05:55:56;;;;;;;13.88;9.55;;;;;;;13.59;100.00;100480.47;6237910;28;20130;-90
2023/05/23 05:58:58;;;;;;;16.60;9.98;;;;;;;13.61;100.00;100496.75;6241848;28;20446;-91
2023/05/23 06:02:01;;;;;;;14.88;10.27;;;;;;;13.60;100.00;100497.72;6239361;28;20127;-91
2023/05/23 06:05:05;;;;;;;14.07;9.65;;;;;;;13.59;100.00;100496.09;6240791;28;20053;-91
2023/05/23 06:08:07;;;;;;;13.05;9.80;;;;;;;13.61;100.00;100503.72;6225830;28;20049;-91
2023/05/23 06:11:09;;;;;;;13.43;9.90;;;;;;;13.63;100.00;100499.22;6237443;28;20065;-91
2023/05/23 06:14:11;;;;;;;15.85;11.48;;;;;;;13.67;100.00;100504.00;6245638;28;20554;-92
2023/05/23 06:17:16;;;;;;;14.18;10.18;;;;;;;13.74;100.00;100501.66;6243856;28;20045;-89
2023/05/23 06:20:19;;;;;;;14.60;11.40;;;;;;;13.72;100.00;100506.16;6231966;28;20144;-90
2023/05/23 06:23:22;;;;;;;16.52;10.82;;;;;;;13.70;100.00;100497.69;6249155;28;20050;-89
2023/05/23 06:26:23;;;;;;;17.33;11.38;;;;;;;13.70;100.00;100495.91;6239300;28;20049;-90
2023/05/23 06:29:26;;;;;;;15.60;10.73;;;;;;;13.75;100.00;100500.69;6237215;28;20049;-91
2023/05/23 06:32:29;;;;;;;14.23;9.57;;;;;;;13.73;100.00;100505.19;6238539;28;20041;-92
2023/05/23 06:35:32;;;;;;;14.35;9.63;;;;;;;13.68;100.00;100505.63;6240990;28;20045;-89
2023/05/23 06:38:34;;;;;;;13.95;10.23;;;;;;;13.66;100.00;100509.31;6251516;28;20041;-89
2023/05/23 06:41:38;;;;;;;13.82;9.30;;;;;;;13.72;100.00;100520.00;6249855;28;20144;-89
2023/05/23 06:44:40;;;;;;;13.07;9.50;;;;;;;13.73;100.00;100520.81;6233240;28;20053;-88
2023/05/23 06:47:44;;;;;;;13.63;9.75;;;;;;;13.64;100.00;100524.25;6228404;28;20035;-88
2023/05/23 06:50:46;;;;;;;11.30;9.13;;;;;;;13.63;100.00;100528.63;6251335;28;20037;-89
2023/05/23 06:53:49;;;;;;;12.10;8.82;;;;;;;13.62;100.00;100536.59;6221602;28;20419;-88
2023/05/23 06:56:51;;;;;;;13.38;9.20;;;;;;;13.59;100.00;100542.91;6235610;28;20056;-89
2023/05/23 06:59:54;;;;;;;10.52;8.43;;;;;;;13.63;100.00;100546.03;6214946;28;20049;-90
2023/05/23 07:03:02;;;;;;;12.35;8.77;;;;;;;13.49;100.00;100553.31;6227128;28;20124;-90
2023/05/23 07:06:04;;;;;;;15.00;9.13;;;;;;;13.46;100.00;100550.97;6234623;28;20060;-90
2023/05/23 07:09:07;;;;;;;12.77;9.20;;;;;;;13.47;100.00;100554.41;6233600;28;20057;-90
2023/05/23 07:12:09;;;;;;;13.55;8.95;;;;;;;13.42;100.00;100554.03;6226443;28;20403;-91
2023/05/23 07:15:15;;;;;;;11.95;8.50;;;;;;;13.36;100.00;100568.38;6231659;28;20069;-92
2023/05/23 07:18:29;;;;;;;12.52;7.78;;;;;;;13.28;100.00;100550.06;6235694;28;20057;-94
2023/05/23 07:21:32;;;;;;;13.32;8.20;;;;;;;13.27;100.00;100557.03;6246355;28;20041;-90
2023/05/23 07:24:35;;;;;;;11.93;8.25;;;;;;;13.24;100.00;100575.47;6247832;28;20049;-90
2023/05/23 07:27:39;;;;;;;11.07;7.75;;;;;;;13.31;100.00;100563.59;6247427;28;20530;-91
2023/05/23 07:30:41;;;;;;;12.25;7.82;;;;;;;13.31;100.00;100560.97;6223083;28;20056;-88
2023/05/23 07:33:43;;;;;;;11.77;7.65;;;;;;;13.29;100.00;100564.69;6237207;28;20163;-89
2023/05/23 07:36:50;;;;;;;11.63;7.75;;;;;;;13.27;100.00;100564.03;6211782;28;20053;-89
2023/05/23 07:39:54;;;;;;;9.90;8.00;;;;;;;13.25;100.00;100574.50;6220486;28;20052;-90
2023/05/23 07:42:56;;;;;;;10.30;7.65;;;;;;;13.28;100.00;100571.66;6233159;28;20644;-89
2023/05/23 07:45:58;;;;;;;9.20;7.10;;;;;;;13.20;100.00;100578.50;6226789;28;20377;-88
2023/05/23 07:49:00;;;;;;;8.85;7.45;;;;;;;13.14;100.00;100582.44;6240368;28;20050;-88
2023/05/23 07:52:03;;;;;;;14.02;8.48;;;;;;;13.07;100.00;100587.38;6241468;28;20053;-90
2023/05/23 07:55:08;;;;;;;14.02;8.40;;;;;;;13.08;100.00;100591.59;6228821;28;20083;-88
2023/05/23 07:58:10;;;;;;;10.43;8.55;;;;;;;13.12;100.00;100603.38;6244992;28;20095;-89
2023/05/23 08:01:12;;;;;;;14.18;9.45;;;;;;;13.07;100.00;100592.56;6251556;28;20299;-89
2023/05/23 08:04:32;;;;;;;12.70;8.80;;;;;;;13.10;100.00;100600.09;6245620;28;20421;-89
2023/05/23 08:07:43;;;;;;;11.15;7.93;;;;;;;13.05;100.00;100615.28;6260767;28;20506;-92
2023/05/23 08:10:48;;;;;;;12.43;9.40;;;;;;;12.95;100.00;100614.44;6260386;28;20040;-89
2023/05/23 08:13:58;;;;;;;11.15;8.63;;;;;;;12.98;100.00;100619.34;6238913;28;20057;-91
2023/05/23 08:17:20;;;;;;;14.43;9.85;;;;;;;12.92;100.00;100628.50;6213491;28;20057;-89
2023/05/23 08:20:29;;;;;;;14.10;9.18;;;;;;;12.95;100.00;100631.81;6243680;28;20487;-90
2023/05/23 08:23:31;;;;;;;17.23;10.05;;;;;;;12.73;100.00;100625.88;6235659;28;20125;-91
2023/05/23 08:26:34;;;;;;;14.82;8.40;;;;;;;12.61;100.00;100645.91;6249195;28;20609;-92
2023/05/23 08:29:40;;;;;;;13.27;8.63;;;;;;;12.56;100.00;100647.28;6247390;28;20254;-90
2023/05/23 08:32:42;;;;;;;16.45;9.10;;;;;;;12.55;100.00;100664.63;6250503;28;20168;-91
2023/05/23 08:35:44;;;;;;;15.90;9.52;;;;;;;12.54;100.00;100644.78;6228312;28;20301;-91
2023/05/23 08:38:49;;;;;;;19.35;9.52;;;;;;;12.50;100.00;100657.22;6241773;28;20048;-91
2023/05/23 08:42:01;;;;;;;15.80;9.30;;;;;;;12.50;100.00;100653.81;6244062;28;20075;-91
2023/05/23 08:45:03;;;;;;;13.32;8.38;;;;;;;12.52;100.00;100658.88;6246815;28;20128;-90
2023/05/23 08:48:08;;;;;;;13.50;6.85;;;;;;;12.42;100.00;100661.41;6236531;28;20049;-90
2023/05/23 08:51:16;;;;;;;16.40;7.25;;;;;;;12.40;100.00;100663.34;6218420;28;20140;-90
2023/05/23 08:54:21;;;;;;;11.68;6.32;;;;;;;12.47;100.00;100699.03;6239040;28;20607;-91
2023/05/23 08:57:24;;;;;;;8.98;5.35;;;;;;;12.44;100.00;100691.47;6218764;28;20042;-90
2023/05/23 09:00:33;;;;;;;10.77;6.13;;;;;;;12.44;100.00;100690.66;6234951;28;20053;-90
2023/05/23 09:03:36;;;;;;;12.38;5.47;;;;;;;12.41;100.00;100701.31;6229505;28;20041;-89
2023/05/23 09:06:44;;;;;;;11.75;6.35;;;;;;;12.32;100.00;100708.09;6243291;28;20103;-90
2023/05/23 09:09:47;;;;;;;13.40;5.90;;;;;;;12.24;100.00;100719.09;6237624;28;20046;-90
2023/05/23 09:12:57;;;;;;;11.38;5.70;;;;;;;12.13;100.00;100719.19;6237422;28;20550;-88
2023/05/23 09:16:09;;;;;;;11.57;5.43;;;;;;;12.01;100.00;100722.78;6240560;28;20064;-92
2023/05/23 09:19:17;;;;;;;11.52;4.97;;;;;;;11.97;100.00;100729.97;6238361;28;20041;-91
2023/05/23 09:22:32;;;;;;;16.75;5.10;;;;;;;12.04;100.00;100743.28;6248281;28;20050;-91
2023/05/23 09:25:45;;;;;;;13.30;4.63;;;;;;;11.93;100.00;100764.94;6243114;28;20052;-92
2023/05/23 09:28:49;;;;;;;10.45;4.47;;;;;;;11.77;100.00;100754.09;6223432;28;20049;-91
2023/05/23 09:31:51;;;;;;;8.25;4.05;;;;;;;11.71;100.00;100739.03;6245244;28;20254;-91
2023/05/23 09:35:04;;;;;;;5.95;3.92;;;;;;;11.79;100.00;100750.44;6230179;28;20044;-90
2023/05/23 09:38:07;;;;;;;10.60;4.38;;;;;;;11.78;100.00;100759.16;6203358;28;20050;-90
2023/05/23 09:41:11;;;;;;;9.75;4.13;;;;;;;11.62;100.00;100766.50;6224581;28;20288;-90
2023/05/23 09:44:22;;;;;;;11.32;4.95;;;;;;;11.55;100.00;100754.97;6229531;28;20041;-91
2023/05/23 09:47:25;;;;;;;8.35;4.60;;;;;;;11.57;100.00;100766.06;6228753;28;20540;-89
2023/05/23 09:50:33;;;;;;;8.25;4.65;;;;;;;11.53;100.00;100788.00;6257485;28;20041;-90
2023/05/23 09:53:37;;;;;;;9.00;4.22;;;;;;;11.52;100.00;100761.22;6247854;28;20053;-89
2023/05/23 09:56:42;;;;;;;9.05;4.25;;;;;;;11.50;100.00;100780.44;6240569;28;20117;-90
2023/05/23 09:59:58;;;;;;;6.72;4.55;;;;;;;11.41;100.00;100798.38;6242657;28;20049;-91
2023/05/23 10:03:12;;;;;;;6.68;3.70;;;;;;;11.42;100.00;100784.47;6250453;28;20076;-90
2023/05/23 10:06:52;;;;;;;5.10;3.35;;;;;;;11.43;100.00;100804.28;6239051;28;20360;-92
2023/05/23 10:10:01;;;;;;;5.82;2.88;;;;;;;11.48;100.00;100797.88;6249824;28;20555;-89
2023/05/23 10:13:04;;;;;;;6.22;2.70;;;;;;;11.59;100.00;100795.28;6249607;28;20462;-90
2023/05/23 10:16:25;;;;;;;5.72;2.80;;;;;;;11.59;100.00;100803.06;6260413;28;20398;-90
2023/05/23 10:19:45;;;;;;;11.57;3.80;;;;;;;11.58;100.00;100812.63;6230647;28;20053;-90
2023/05/23 10:22:47;;;;;;;13.55;5.68;;;;;;;11.53;100.00;100811.34;6220268;28;20041;-90
2023/05/23 10:25:50;;;;;;;14.27;5.97;;;;;;;11.46;100.00;100812.75;6223959;28;20435;-89
2023/05/23 10:28:53;;;;;;;13.68;6.35;;;;;;;11.44;100.00;100838.78;6227545;28;20046;-89
2023/05/23 10:31:58;;;;;;;14.10;6.40;;;;;;;11.34;100.00;100815.34;6251325;28;20049;-89
2023/05/23 10:35:03;;;;;;;9.43;5.78;;;;;;;11.28;100.00;100826.19;6250014;28;20467;-89
2023/05/23 10:38:31;;;;;;;12.15;5.45;;;;;;;11.45;100.00;100829.25;6251730;28;20044;-88
2023/05/23 10:41:59;;;;;;;12.90;5.72;;;;;;;11.43;100.00;100839.75;6252522;28;20048;-90
2023/05/23 10:45:20;;;;;;;10.80;5.25;;;;;;;11.43;100.00;100834.56;6234856;28;20041;-89
2023/05/23 10:48:33;;;;;;;13.13;4.97;;;;;;;11.54;100.00;100829.34;6237432;28;20351;-89
2023/05/23 10:51:38;;;;;;;7.18;4.65;;;;;;;11.62;100.00;100852.09;6226141;28;20033;-93
2023/05/23 10:54:51;;;;;;;16.50;5.82;;;;;;;11.63;100.00;100845.97;6237800;28;20052;-90
2023/05/23 10:58:17;;;;;;;14.98;7.25;;;;;;;11.72;100.00;100847.81;6247497;28;20036;-90
2023/05/23 11:01:19;;;;;;;11.48;5.80;;;;;;;11.72;100.00;100865.97;6232065;28;20514;-88
2023/05/23 11:04:28;;;;;;;13.90;5.55;;;;;;;11.61;100.00;100848.66;6220341;28;20204;-92
2023/05/23 11:07:31;;;;;;;16.50;5.45;;;;;;;11.62;100.00;100844.31;6216954;28;20049;-88
2023/05/23 11:10:51;;;;;;;10.10;5.22;;;;;;;11.67;100.00;100849.13;6229349;28;20049;-88
2023/05/23 11:14:04;;;;;;;14.32;5.72;;;;;;;11.68;100.00;100858.56;6219280;28;20042;-89
2023/05/23 11:17:12;;;;;;;11.10;4.65;;;;;;;11.73;100.00;100861.63;6241940;28;20045;-88
2023/05/23 11:20:15;;;;;;;15.00;6.45;;;;;;;11.81;100.00;100878.22;6242935;28;20038;-92
2023/05/23 11:23:21;;;;;;;13.05;6.93;;;;;;;11.94;100.00;100872.91;6237722;28;20076;-89
2023/05/23 11:26:31;;;;;;;14.27;6.30;;;;;;;11.83;100.00;100875.53;6230639;28;20722;-89
2023/05/23 11:29:33;;;;;;;13.27;5.70;;;;;;;11.82;100.00;100879.88;6229666;28;20052;-89
2023/05/23 11:32:35;;;;;;;15.30;5.55;;;;;;;11.77;100.00;100883.78;6234389;28;20412;-88
2023/05/23 11:35:48;;;;;;;16.27;5.72;;;;;;;11.54;100.00;100867.41;6217428;28;20128;-88
2023/05/23 11:38:52;;;;;;;11.00;5.82;;;;;;;11.53;100.00;100887.34;6232055;28;20042;-90
2023/05/23 11:42:03;;;;;;;14.07;5.35;;;;;;;11.59;100.00;100883.44;6243518;28;20048;-92
2023/05/23 11:45:08;;;;;;;11.77;5.60;;;;;;;11.67;100.00;100898.41;6224207;28;20179;-91
2023/05/23 11:48:12;;;;;;;15.35;5.30;;;;;;;11.69;100.00;100889.56;6223372;28;20124;-91
2023/05/23 11:51:14;;;;;;;17.88;6.00;;;;;;;11.76;100.00;100892.50;6241832;28;20048;-90
2023/05/23 11:54:16;;;;;;;12.75;5.75;;;;;;;11.84;100.00;100890.94;6229250;28;20694;-92
2023/05/23 11:57:18;;;;;;;12.27;6.20;;;;;;;12.03;100.00;100886.94;6227021;28;20444;-89
2023/05/23 12:00:21;;;;;;;17.35;6.10;;;;;;;12.52;100.00;100890.81;6230837;28;20527;-90
2023/05/23 12:03:23;;;;;;;13.52;6.65;;;;;;;13.07;100.00;100886.25;6244845;28;20506;-91
2023/05/23 12:06:25;;;;;;;16.42;6.13;;;;;;;13.79;100.00;100893.13;6236079;28;20045;-92
2023/05/23 12:09:27;;;;;;;16.30;6.50;;;;;;;14.18;100.00;100895.78;6212556;28;20069;-94
2023/05/23 12:12:31;;;;;;;19.88;6.22;;;;;;;14.41;100.00;100898.97;6232578;28;20737;-93
2023/05/23 12:15:33;;;;;;;15.93;6.20;;;;;;;14.35;100.00;100896.09;6227063;28;20420;-92
2023/05/23 12:18:36;;;;;;;10.00;4.80;;;;;;;14.41;100.00;100903.38;6213456;28;20057;-93
2023/05/23 12:21:49;;;;;;;14.43;4.50;;;;;;;14.07;100.00;100908.13;6212141;28;20200;-93
2023/05/23 12:24:55;;;;;;;10.45;4.22;;;;;;;13.84;100.00;100903.16;6232890;28;20381;-93
2023/05/23 12:27:59;;;;;;;11.10;3.97;;;;;;;14.02;100.00;100911.13;6257984;28;20469;-94
2023/05/23 12:31:11;;;;;;;12.00;4.45;;;;;;;14.18;100.00;100913.19;6243593;28;20036;-95
2023/05/23 12:34:13;;;;;;;13.10;4.50;;;;;;;14.37;100.00;100908.00;6228518;28;20415;-93
2023/05/23 12:37:15;;;;;;;14.13;4.63;;;;;;;14.32;100.00;100928.44;6241619;28;20040;-92
2023/05/23 12:40:21;;;;;;;15.50;4.70;;;;;;;14.10;100.00;100920.88;6235548;28;20127;-94
2023/05/23 12:43:23;;;;;;;13.38;5.07;;;;;;;14.06;100.00;100902.09;6236956;28;20258;-94
2023/05/23 12:46:28;;;;;;;10.48;3.97;;;;;;;14.21;100.00;100925.97;6231051;28;20037;-93
2023/05/23 12:49:30;;;;;;;12.23;4.32;;;;;;;14.35;100.00;100909.13;6236613;28;20405;-92
2023/05/23 12:52:35;;;;;;;10.23;4.45;;;;;;;14.59;100.00;100916.56;6244776;28;20041;-94
2023/05/23 12:55:37;;;;;;;10.27;4.88;;;;;;;14.64;100.00;100907.38;6225011;28;20041;-92
2023/05/23 12:58:39;;;;;;;21.13;5.63;;;;;;;14.74;100.00;100920.38;6216988;28;20053;-92
2023/05/23 13:01:41;;;;;;;8.38;3.80;;;;;;;14.85;100.00;100908.97;6238161;28;20052;-93
2023/05/23 13:04:43;;;;;;;12.13;4.25;;;;;;;14.84;100.00;100917.78;6236877;28;20073;-91
2023/05/23 13:07:45;;;;;;;11.93;4.18;;;;;;;14.61;100.00;100940.69;6243285;28;20040;-91
2023/05/23 13:10:48;;;;;;;8.85;4.28;;;;;;;14.89;100.00;100918.19;6231449;28;20060;-92
2023/05/23 13:13:50;;;;;;;10.50;4.47;;;;;;;15.23;100.00;100933.34;6233577;28;20040;-93
2023/05/23 13:16:53;;;;;;;8.13;4.47;;;;;;;15.53;100.00;100942.72;6235215;28;20395;-92
2023/05/23 13:19:55;;;;;;;15.20;4.28;;;;;;;15.36;100.00;100946.06;6238029;28;20127;-90
2023/05/23 13:22:57;;;;;;;10.82;4.45;;;;;;;15.24;100.00;100937.59;6235619;28;20515;-91
2023/05/23 13:26:01;;;;;;;14.73;4.68;;;;;;;15.14;100.00;100937.59;6228380;28;20411;-91
2023/05/23 13:29:04;;;;;;;11.20;4.30;;;;;;;15.33;100.00;100935.91;6225953;28;20049;-91
2023/05/23 13:32:07;;;;;;;12.15;3.80;;;;;;;16.08;100.00;100937.53;6241922;28;20041;-91
2023/05/23 13:35:10;;;;;;;8.02;3.97;;;;;;;16.17;100.00;100959.31;6227680;28;20041;-95
2023/05/23 13:38:12;;;;;;;12.98;5.05;;;;;;;16.27;100.00;100964.47;6242195;28;20088;-90
2023/05/23 13:41:14;;;;;;;12.25;6.03;;;;;;;16.21;100.00;100934.56;6244489;28;20062;-91
2023/05/23 13:44:16;;;;;;;18.08;6.72;;;;;;;16.38;100.00;100948.59;6243976;28;20049;-91
2023/05/23 13:47:20;;;;;;;20.45;6.53;;;;;;;16.58;100.00;100964.97;6245575;28;20041;-93
2023/05/23 13:50:22;;;;;;;15.10;6.03;;;;;;;16.33;100.00;100954.28;6235241;28;20533;-91
2023/05/23 13:53:24;;;;;;;12.27;5.43;;;;;;;15.80;100.00;100972.44;6239844;28;20237;-92
2023/05/23 13:56:26;;;;;;;13.25;5.68;;;;;;;15.96;100.00;100969.22;6236941;28;20042;-93
2023/05/23 13:59:30;;;;;;;13.98;5.63;;;;;;;16.12;100.00;100959.78;6245110;28;20171;-92